sensor_id;sensor_type;location;lat;lon;timestamp;pressure;altitude;pressure_sealevel;temperature;humidity
71948;BME280;59820;55.076;38.766;2022-07-23T00:01:24;99783.97;;;16.12;75.59
71948;BME280;59820;55.076;38.766;2022-07-23T00:03:50;99786.91;;;16.09;75.56
71948;BME280;59820;55.076;38.766;2022-07-23T00:06:17;99766.94;;;16.03;75.99
71948;BME280;59820;55.076;38.766;2022-07-23T00:08:43;99760.38;;;15.96;75.99
71948;BME280;59820;55.076;38.766;2022-07-23T00:11:09;99780.13;;;16.05;75.88
71948;BME280;59820;55.076;38.766;2022-07-23T00:13:36;99769.59;;;16.03;75.92
71948;BME280;59820;55.076;38.766;2022-07-23T00:16:03;99757.97;;;15.93;76.39
71948;BME280;59820;55.076;38.766;2022-07-23T00:18:29;99763.16;;;15.94;76.02
71948;BME280;59820;55.076;38.766;2022-07-23T00:20:55;99759.91;;;15.91;76.29
71948;BME280;59820;55.076;38.766;2022-07-23T00:23:20;99769.34;;;15.95;76.15
71948;BME280;59820;55.076;38.766;2022-07-23T00:25:46;99770.78;;;15.88;76.49
71948;BME280;59820;55.076;38.766;2022-07-23T00:28:12;99772.59;;;15.87;76.92
71948;BME280;59820;55.076;38.766;2022-07-23T00:30:39;99782.41;;;15.87;76.92
71948;BME280;59820;55.076;38.766;2022-07-23T00:33:07;99768.75;;;15.80;77.08
71948;BME280;59820;55.076;38.766;2022-07-23T00:35:35;99782.13;;;15.78;77.27
71948;BME280;59820;55.076;38.766;2022-07-23T00:38:03;99787.78;;;15.74;77.36
71948;BME280;59820;55.076;38.766;2022-07-23T00:40:30;99776.31;;;15.62;77.51
71948;BME280;59820;55.076;38.766;2022-07-23T00:42:56;99772.44;;;15.66;77.67
71948;BME280;59820;55.076;38.766;2022-07-23T00:45:25;99771.00;;;15.62;78.07
71948;BME280;59820;55.076;38.766;2022-07-23T00:47:51;99778.34;;;15.58;78.08
71948;BME280;59820;55.076;38.766;2022-07-23T00:50:17;99759.31;;;15.40;78.40
71948;BME280;59820;55.076;38.766;2022-07-23T00:52:43;99792.72;;;15.56;78.17
71948;BME280;59820;55.076;38.766;2022-07-23T00:55:11;99792.00;;;15.54;78.42
71948;BME280;59820;55.076;38.766;2022-07-23T00:57:39;99782.78;;;15.47;78.23
71948;BME280;59820;55.076;38.766;2022-07-23T01:00:10;99784.84;;;15.43;78.61
71948;BME280;59820;55.076;38.766;2022-07-23T01:02:37;99784.34;;;15.38;78.44
71948;BME280;59820;55.076;38.766;2022-07-23T01:05:04;99792.69;;;15.44;78.64
71948;BME280;59820;55.076;38.766;2022-07-23T01:07:31;99785.41;;;15.35;78.71
71948;BME280;59820;55.076;38.766;2022-07-23T01:09:57;99761.19;;;15.16;78.67
71948;BME280;59820;55.076;38.766;2022-07-23T01:12:25;99765.44;;;15.18;78.84
71948;BME280;59820;55.076;38.766;2022-07-23T01:14:58;99795.09;;;15.36;78.73
71948;BME280;59820;55.076;38.766;2022-07-23T01:17:25;99792.69;;;15.33;79.03
71948;BME280;59820;55.076;38.766;2022-07-23T01:19:54;99793.41;;;15.35;78.50
71948;BME280;59820;55.076;38.766;2022-07-23T01:22:20;99788.06;;;15.35;78.63
71948;BME280;59820;55.076;38.766;2022-07-23T01:24:47;99784.69;;;15.33;78.57
71948;BME280;59820;55.076;38.766;2022-07-23T01:27:13;99784.91;;;15.30;78.49
71948;BME280;59820;55.076;38.766;2022-07-23T01:29:40;99787.44;;;15.32;78.65
71948;BME280;59820;55.076;38.766;2022-07-23T01:32:14;99738.91;;;15.05;78.75
71948;BME280;59820;55.076;38.766;2022-07-23T01:34:40;99771.13;;;15.25;78.51
71948;BME280;59820;55.076;38.766;2022-07-23T01:37:06;99783.25;;;15.29;78.83
71948;BME280;59820;55.076;38.766;2022-07-23T01:39:33;99771.84;;;15.27;78.49
71948;BME280;59820;55.076;38.766;2022-07-23T01:41:59;99783.00;;;15.32;78.34
71948;BME280;59820;55.076;38.766;2022-07-23T01:44:26;99767.50;;;15.26;78.18
71948;BME280;59820;55.076;38.766;2022-07-23T01:46:52;99760.72;;;15.22;78.47
71948;BME280;59820;55.076;38.766;2022-07-23T01:49:19;99781.06;;;15.34;78.31
71948;BME280;59820;55.076;38.766;2022-07-23T01:52:11;99770.66;;;15.31;78.36
71948;BME280;59820;55.076;38.766;2022-07-23T01:54:43;99779.47;;;15.32;78.08
71948;BME280;59820;55.076;38.766;2022-07-23T01:57:09;99772.69;;;15.27;78.42
71948;BME280;59820;55.076;38.766;2022-07-23T01:59:36;99764.84;;;15.26;78.36
71948;BME280;59820;55.076;38.766;2022-07-23T02:02:05;99787.84;;;15.38;78.05
71948;BME280;59820;55.076;38.766;2022-07-23T02:04:31;99785.19;;;15.38;78.21
71948;BME280;59820;55.076;38.766;2022-07-23T02:07:01;99784.47;;;15.36;78.28
71948;BME280;59820;55.076;38.766;2022-07-23T02:09:27;99777.94;;;15.40;77.88
71948;BME280;59820;55.076;38.766;2022-07-23T02:11:53;99765.09;;;15.34;78.20
71948;BME280;59820;55.076;38.766;2022-07-23T02:14:19;99770.91;;;15.39;77.59
71948;BME280;59820;55.076;38.766;2022-07-23T02:16:45;99786.31;;;15.47;77.87
71948;BME280;59820;55.076;38.766;2022-07-23T02:19:12;99768.50;;;15.36;77.33
71948;BME280;59820;55.076;38.766;2022-07-23T02:21:37;99764.97;;;15.36;77.21
71948;BME280;59820;55.076;38.766;2022-07-23T02:24:04;99761.75;;;15.43;77.03
71948;BME280;59820;55.076;38.766;2022-07-23T02:26:30;99785.50;;;15.58;77.09
71948;BME280;59820;55.076;38.766;2022-07-23T02:29:02;99789.47;;;15.64;76.77
71948;BME280;59820;55.076;38.766;2022-07-23T02:31:29;99778.22;;;15.60;76.60
71948;BME280;59820;55.076;38.766;2022-07-23T02:33:56;99782.34;;;15.64;76.36
71948;BME280;59820;55.076;38.766;2022-07-23T02:36:23;99784.28;;;15.73;76.43
71948;BME280;59820;55.076;38.766;2022-07-23T02:38:50;99773.16;;;15.68;76.29
71948;BME280;59820;55.076;38.766;2022-07-23T02:41:16;99785.00;;;15.75;76.23
71948;BME280;59820;55.076;38.766;2022-07-23T02:43:43;99776.91;;;15.77;75.98
71948;BME280;59820;55.076;38.766;2022-07-23T02:46:11;99780.97;;;15.83;76.01
71948;BME280;59820;55.076;38.766;2022-07-23T02:48:38;99769.03;;;15.75;76.30
71948;BME280;59820;55.076;38.766;2022-07-23T02:51:04;99772.47;;;15.89;75.96
71948;BME280;59820;55.076;38.766;2022-07-23T02:53:36;99781.53;;;15.98;75.52
71948;BME280;59820;55.076;38.766;2022-07-23T02:56:03;99761.59;;;15.92;75.27
71948;BME280;59820;55.076;38.766;2022-07-23T02:58:29;99779.25;;;16.04;74.98
71948;BME280;59820;55.076;38.766;2022-07-23T03:00:55;99772.34;;;16.02;75.29
71948;BME280;59820;55.076;38.766;2022-07-23T03:03:23;99785.06;;;16.09;75.56
71948;BME280;59820;55.076;38.766;2022-07-23T03:05:52;99782.03;;;16.14;75.22
71948;BME280;59820;55.076;38.766;2022-07-23T03:08:18;99790.50;;;16.19;74.87
71948;BME280;59820;55.076;38.766;2022-07-23T03:10:49;99785.31;;;16.18;74.59
71948;BME280;59820;55.076;38.766;2022-07-23T03:13:16;99782.28;;;16.22;74.03
71948;BME280;59820;55.076;38.766;2022-07-23T03:15:42;99792.06;;;16.33;74.28
71948;BME280;59820;55.076;38.766;2022-07-23T03:18:08;99778.53;;;16.36;73.76
71948;BME280;59820;55.076;38.766;2022-07-23T03:20:34;99786.75;;;16.44;72.94
71948;BME280;59820;55.076;38.766;2022-07-23T03:23:00;99790.22;;;16.56;73.38
71948;BME280;59820;55.076;38.766;2022-07-23T03:25:27;99775.59;;;16.51;73.37
71948;BME280;59820;55.076;38.766;2022-07-23T03:27:53;99775.31;;;16.54;72.38
71948;BME280;59820;55.076;38.766;2022-07-23T03:30:19;99792.50;;;16.72;73.05
71948;BME280;59820;55.076;38.766;2022-07-23T03:32:45;99800.47;;;16.84;73.24
71948;BME280;59820;55.076;38.766;2022-07-23T03:35:12;99801.91;;;16.88;72.39
71948;BME280;59820;55.076;38.766;2022-07-23T03:37:45;99788.34;;;16.91;72.50
71948;BME280;59820;55.076;38.766;2022-07-23T03:40:12;99799.34;;;16.98;72.48
71948;BME280;59820;55.076;38.766;2022-07-23T03:42:38;99801.25;;;17.07;72.81
71948;BME280;59820;55.076;38.766;2022-07-23T03:45:07;99801.59;;;17.13;72.13
71948;BME280;59820;55.076;38.766;2022-07-23T03:47:32;99804.28;;;17.13;72.14
71948;BME280;59820;55.076;38.766;2022-07-23T03:49:59;99788.84;;;17.17;72.30
71948;BME280;59820;55.076;38.766;2022-07-23T03:52:25;99803.91;;;17.39;71.80
71948;BME280;59820;55.076;38.766;2022-07-23T03:54:51;99797.44;;;17.42;72.22
71948;BME280;59820;55.076;38.766;2022-07-23T03:57:17;99797.91;;;17.47;71.35
71948;BME280;59820;55.076;38.766;2022-07-23T03:59:43;99800.41;;;17.60;71.87
71948;BME280;59820;55.076;38.766;2022-07-23T04:02:10;99802.69;;;17.64;72.14
71948;BME280;59820;55.076;38.766;2022-07-23T04:04:36;99806.38;;;17.73;71.50
71948;BME280;59820;55.076;38.766;2022-07-23T04:07:03;99799.09;;;17.75;71.58
71948;BME280;59820;55.076;38.766;2022-07-23T04:09:30;99793.06;;;17.83;71.00
71948;BME280;59820;55.076;38.766;2022-07-23T04:11:56;99796.06;;;17.90;70.40
71948;BME280;59820;55.076;38.766;2022-07-23T04:14:22;99796.13;;;18.00;70.78
71948;BME280;59820;55.076;38.766;2022-07-23T04:16:48;99801.09;;;18.04;70.88
71948;BME280;59820;55.076;38.766;2022-07-23T04:19:14;99802.69;;;18.17;70.40
71948;BME280;59820;55.076;38.766;2022-07-23T04:21:53;99804.25;;;18.19;70.59
71948;BME280;59820;55.076;38.766;2022-07-23T04:24:19;99807.53;;;18.33;70.85
71948;BME280;59820;55.076;38.766;2022-07-23T04:26:45;99791.38;;;18.34;71.04
71948;BME280;59820;55.076;38.766;2022-07-23T04:29:11;99802.66;;;18.47;70.24
71948;BME280;59820;55.076;38.766;2022-07-23T04:31:37;99795.91;;;18.53;70.43
71948;BME280;59820;55.076;38.766;2022-07-23T04:34:04;99801.84;;;18.67;69.71
71948;BME280;59820;55.076;38.766;2022-07-23T04:36:31;99804.00;;;18.73;69.48
71948;BME280;59820;55.076;38.766;2022-07-23T04:38:57;99794.84;;;18.75;69.17
71948;BME280;59820;55.076;38.766;2022-07-23T04:41:23;99812.06;;;18.92;69.61
71948;BME280;59820;55.076;38.766;2022-07-23T04:43:49;99801.22;;;18.94;69.31
71948;BME280;59820;55.076;38.766;2022-07-23T04:46:19;99807.00;;;18.99;68.92
71948;BME280;59820;55.076;38.766;2022-07-23T04:48:48;99794.34;;;19.01;68.60
71948;BME280;59820;55.076;38.766;2022-07-23T04:51:14;99781.97;;;19.00;69.10
71948;BME280;59820;55.076;38.766;2022-07-23T04:53:40;99800.41;;;19.23;69.57
71948;BME280;59820;55.076;38.766;2022-07-23T04:56:06;99796.88;;;19.22;68.56
71948;BME280;59820;55.076;38.766;2022-07-23T04:58:33;99790.53;;;19.23;69.05
71948;BME280;59820;55.076;38.766;2022-07-23T05:00:59;99800.69;;;19.29;68.90
71948;BME280;59820;55.076;38.766;2022-07-23T05:03:26;99803.94;;;19.33;69.42
71948;BME280;59820;55.076;38.766;2022-07-23T05:05:53;99802.50;;;19.48;69.53
71948;BME280;59820;55.076;38.766;2022-07-23T05:08:19;99801.34;;;19.61;69.49
71948;BME280;59820;55.076;38.766;2022-07-23T05:10:49;99798.94;;;19.67;69.06
71948;BME280;59820;55.076;38.766;2022-07-23T05:13:16;99810.47;;;19.78;69.03
71948;BME280;59820;55.076;38.766;2022-07-23T05:15:44;99802.16;;;19.81;68.78
71948;BME280;59820;55.076;38.766;2022-07-23T05:18:10;99794.41;;;19.88;69.38
71948;BME280;59820;55.076;38.766;2022-07-23T05:20:36;99797.19;;;19.96;68.95
71948;BME280;59820;55.076;38.766;2022-07-23T05:23:02;99797.91;;;19.98;68.29
71948;BME280;59820;55.076;38.766;2022-07-23T05:25:29;99781.13;;;19.96;68.78
71948;BME280;59820;55.076;38.766;2022-07-23T05:27:55;99797.16;;;20.15;68.23
71948;BME280;59820;55.076;38.766;2022-07-23T05:30:21;99748.16;;;19.95;68.25
71948;BME280;59820;55.076;38.766;2022-07-23T05:32:55;99786.06;;;20.28;68.44
71948;BME280;59820;55.076;38.766;2022-07-23T05:35:21;99795.16;;;20.45;68.70
71948;BME280;59820;55.076;38.766;2022-07-23T05:38:13;99794.50;;;20.61;67.75
71948;BME280;59820;55.076;38.766;2022-07-23T05:40:40;99783.31;;;20.66;67.82
71948;BME280;59820;55.076;38.766;2022-07-23T05:43:06;99794.56;;;20.79;66.56
71948;BME280;59820;55.076;38.766;2022-07-23T05:45:33;99788.28;;;20.89;66.93
71948;BME280;59820;55.076;38.766;2022-07-23T05:48:00;99801.69;;;21.07;66.88
71948;BME280;59820;55.076;38.766;2022-07-23T05:50:34;99794.28;;;21.18;66.28
71948;BME280;59820;55.076;38.766;2022-07-23T05:53:19;99797.63;;;21.21;64.76
71948;BME280;59820;55.076;38.766;2022-07-23T05:56:06;99770.72;;;21.12;65.47
71948;BME280;59820;55.076;38.766;2022-07-23T05:58:32;99798.47;;;21.39;65.33
71948;BME280;59820;55.076;38.766;2022-07-23T06:00:59;99791.00;;;21.51;65.06
71948;BME280;59820;55.076;38.766;2022-07-23T06:03:27;99763.63;;;21.47;65.36
71948;BME280;59820;55.076;38.766;2022-07-23T06:05:53;99790.81;;;21.71;64.27
71948;BME280;59820;55.076;38.766;2022-07-23T06:08:20;99777.44;;;21.79;63.80
71948;BME280;59820;55.076;38.766;2022-07-23T06:10:46;99792.28;;;21.91;63.64
71948;BME280;59820;55.076;38.766;2022-07-23T06:13:12;99783.44;;;21.99;63.65
71948;BME280;59820;55.076;38.766;2022-07-23T06:15:38;99781.50;;;22.09;63.66
71948;BME280;59820;55.076;38.766;2022-07-23T06:21:21;99788.31;;;22.30;62.47
71948;BME280;59820;55.076;38.766;2022-07-23T06:23:47;99782.31;;;22.36;62.11
71948;BME280;59820;55.076;38.766;2022-07-23T06:26:13;99786.72;;;22.45;62.58
71948;BME280;59820;55.076;38.766;2022-07-23T06:28:39;99780.69;;;22.60;62.81
71948;BME280;59820;55.076;38.766;2022-07-23T06:31:06;99781.41;;;22.70;61.52
71948;BME280;59820;55.076;38.766;2022-07-23T06:33:31;99772.66;;;22.76;60.16
71948;BME280;59820;55.076;38.766;2022-07-23T06:35:58;99773.84;;;22.90;60.35
71948;BME280;59820;55.076;38.766;2022-07-23T06:38:24;99784.97;;;23.03;61.12
71948;BME280;59820;55.076;38.766;2022-07-23T06:40:51;99775.38;;;23.01;59.08
71948;BME280;59820;55.076;38.766;2022-07-23T06:43:17;99780.59;;;23.11;59.46
71948;BME280;59820;55.076;38.766;2022-07-23T06:45:44;99769.84;;;23.11;59.37
71948;BME280;59820;55.076;38.766;2022-07-23T06:48:10;99780.31;;;23.30;60.23
71948;BME280;59820;55.076;38.766;2022-07-23T06:50:36;99763.31;;;23.30;59.95
71948;BME280;59820;55.076;38.766;2022-07-23T06:53:02;99785.88;;;23.45;59.35
71948;BME280;59820;55.076;38.766;2022-07-23T06:55:29;99777.44;;;23.48;58.85
71948;BME280;59820;55.076;38.766;2022-07-23T06:57:54;99771.88;;;23.50;57.05
71948;BME280;59820;55.076;38.766;2022-07-23T07:00:21;99773.41;;;23.52;57.91
71948;BME280;59820;55.076;38.766;2022-07-23T07:02:48;99780.47;;;23.70;58.01
71948;BME280;59820;55.076;38.766;2022-07-23T07:05:14;99788.53;;;23.78;58.19
71948;BME280;59820;55.076;38.766;2022-07-23T07:07:40;99776.41;;;23.82;57.76
71948;BME280;59820;55.076;38.766;2022-07-23T07:10:06;99763.56;;;23.84;57.82
71948;BME280;59820;55.076;38.766;2022-07-23T07:12:33;99775.03;;;24.03;55.94
71948;BME280;59820;55.076;38.766;2022-07-23T07:14:59;99751.75;;;24.02;56.91
71948;BME280;59820;55.076;38.766;2022-07-23T07:17:25;99716.44;;;23.88;56.64
71948;BME280;59820;55.076;38.766;2022-07-23T07:19:52;99770.19;;;24.30;56.59
71948;BME280;59820;55.076;38.766;2022-07-23T07:22:17;99764.97;;;24.28;54.33
71948;BME280;59820;55.076;38.766;2022-07-23T07:24:44;99746.91;;;24.29;54.15
71948;BME280;59820;55.076;38.766;2022-07-23T07:27:10;99763.69;;;24.47;55.19
71948;BME280;59820;55.076;38.766;2022-07-23T07:29:36;99769.38;;;24.61;55.00
71948;BME280;59820;55.076;38.766;2022-07-23T07:32:01;99758.56;;;24.61;53.98
71948;BME280;59820;55.076;38.766;2022-07-23T07:34:28;99767.28;;;24.71;54.09
71948;BME280;59820;55.076;38.766;2022-07-23T07:36:54;99775.34;;;24.79;53.36
71948;BME280;59820;55.076;38.766;2022-07-23T07:39:20;99767.06;;;24.81;53.56
71948;BME280;59820;55.076;38.766;2022-07-23T07:41:46;99773.22;;;24.98;54.65
71948;BME280;59820;55.076;38.766;2022-07-23T07:44:12;99775.84;;;25.06;52.95
71948;BME280;59820;55.076;38.766;2022-07-23T07:46:38;99780.50;;;25.12;53.53
71948;BME280;59820;55.076;38.766;2022-07-23T07:49:04;99760.97;;;25.10;53.14
71948;BME280;59820;55.076;38.766;2022-07-23T07:51:31;99765.25;;;25.19;52.99
71948;BME280;59820;55.076;38.766;2022-07-23T07:53:58;99759.84;;;25.19;53.27
71948;BME280;59820;55.076;38.766;2022-07-23T07:56:24;99771.16;;;25.23;52.68
71948;BME280;59820;55.076;38.766;2022-07-23T07:58:50;99771.91;;;25.09;52.93
71948;BME280;59820;55.076;38.766;2022-07-23T08:01:15;99769.91;;;25.11;53.77
71948;BME280;59820;55.076;38.766;2022-07-23T08:03:46;99772.41;;;25.12;53.48
71948;BME280;59820;55.076;38.766;2022-07-23T08:06:12;99768.38;;;25.08;53.12
71948;BME280;59820;55.076;38.766;2022-07-23T08:08:38;99780.13;;;25.15;51.99
71948;BME280;59820;55.076;38.766;2022-07-23T08:11:03;99784.16;;;25.19;51.01
71948;BME280;59820;55.076;38.766;2022-07-23T08:17:50;99767.31;;;25.40;52.12
71948;BME280;59820;55.076;38.766;2022-07-23T08:20:18;99767.50;;;25.54;51.36
71948;BME280;59820;55.076;38.766;2022-07-23T08:22:57;99769.19;;;25.55;49.93
71948;BME280;59820;55.076;38.766;2022-07-23T08:25:35;99760.81;;;25.65;47.66
71948;BME280;59820;55.076;38.766;2022-07-23T08:28:03;99758.13;;;25.95;48.31
71948;BME280;59820;55.076;38.766;2022-07-23T08:30:30;99765.06;;;26.12;47.51
71948;BME280;59820;55.076;38.766;2022-07-23T08:35:29;99761.19;;;26.36;46.97
71948;BME280;59820;55.076;38.766;2022-07-23T08:37:56;99746.16;;;26.49;46.87
71948;BME280;59820;55.076;38.766;2022-07-23T08:40:24;99755.03;;;26.42;48.08
71948;BME280;59820;55.076;38.766;2022-07-23T08:42:51;99758.50;;;26.36;47.82
71948;BME280;59820;55.076;38.766;2022-07-23T08:45:19;99738.47;;;26.16;47.91
71948;BME280;59820;55.076;38.766;2022-07-23T08:48:07;99752.91;;;26.38;46.59
71948;BME280;59820;55.076;38.766;2022-07-23T08:50:34;99750.94;;;26.47;45.78
71948;BME280;59820;55.076;38.766;2022-07-23T08:53:05;99744.25;;;26.64;45.96
71948;BME280;59820;55.076;38.766;2022-07-23T08:55:32;99749.31;;;26.52;47.00
71948;BME280;59820;55.076;38.766;2022-07-23T08:57:58;99744.09;;;26.51;46.43
71948;BME280;59820;55.076;38.766;2022-07-23T09:00:24;99743.03;;;26.67;44.67
71948;BME280;59820;55.076;38.766;2022-07-23T09:02:50;99749.38;;;26.74;46.05
71948;BME280;59820;55.076;38.766;2022-07-23T09:05:17;99744.50;;;26.69;44.16
71948;BME280;59820;55.076;38.766;2022-07-23T09:10:57;99726.94;;;27.23;44.15
71948;BME280;59820;55.076;38.766;2022-07-23T09:13:50;99721.66;;;27.43;43.99
71948;BME280;59820;55.076;38.766;2022-07-23T09:24:17;99725.56;;;27.63;42.04
71948;BME280;59820;55.076;38.766;2022-07-23T09:26:47;99720.22;;;27.19;42.45
71948;BME280;59820;55.076;38.766;2022-07-23T09:29:24;99718.41;;;27.26;43.42
71948;BME280;59820;55.076;38.766;2022-07-23T09:31:55;99730.19;;;27.12;42.92
71948;BME280;59820;55.076;38.766;2022-07-23T09:34:35;99719.09;;;27.07;43.08
71948;BME280;59820;55.076;38.766;2022-07-23T09:37:12;99718.75;;;27.17;43.63
71948;BME280;59820;55.076;38.766;2022-07-23T09:39:40;99714.81;;;27.19;42.71
71948;BME280;59820;55.076;38.766;2022-07-23T09:42:24;99718.06;;;27.08;43.24
71948;BME280;59820;55.076;38.766;2022-07-23T09:44:52;99711.16;;;27.34;42.88
71948;BME280;59820;55.076;38.766;2022-07-23T09:47:21;99707.28;;;27.71;42.13
71948;BME280;59820;55.076;38.766;2022-07-23T09:50:04;99690.88;;;27.93;40.98
71948;BME280;59820;55.076;38.766;2022-07-23T09:52:36;99689.75;;;28.09;41.99
71948;BME280;59820;55.076;38.766;2022-07-23T09:55:08;99703.09;;;28.10;40.98
71948;BME280;59820;55.076;38.766;2022-07-23T09:57:36;99695.41;;;28.14;41.35
71948;BME280;59820;55.076;38.766;2022-07-23T10:00:05;99703.81;;;28.33;41.09
71948;BME280;59820;55.076;38.766;2022-07-23T10:02:32;99694.00;;;28.25;39.65
71948;BME280;59820;55.076;38.766;2022-07-23T10:05:17;99689.00;;;28.35;40.40
71948;BME280;59820;55.076;38.766;2022-07-23T10:08:03;99697.59;;;28.59;39.08
71948;BME280;59820;55.076;38.766;2022-07-23T10:10:35;99687.88;;;28.16;39.97
71948;BME280;59820;55.076;38.766;2022-07-23T10:13:38;99694.84;;;27.84;40.06
71948;BME280;59820;55.076;38.766;2022-07-23T10:16:20;99686.25;;;28.15;39.48
71948;BME280;59820;55.076;38.766;2022-07-23T10:18:47;99688.69;;;28.65;38.13
71948;BME280;59820;55.076;38.766;2022-07-23T10:22:03;99681.81;;;29.03;38.15
71948;BME280;59820;55.076;38.766;2022-07-23T10:29:45;99696.66;;;28.87;38.49
71948;BME280;59820;55.076;38.766;2022-07-23T10:32:40;99694.38;;;28.15;39.76
71948;BME280;59820;55.076;38.766;2022-07-23T10:35:24;99699.53;;;27.68;41.68
71948;BME280;59820;55.076;38.766;2022-07-23T10:37:56;99706.75;;;27.54;42.78
71948;BME280;59820;55.076;38.766;2022-07-23T10:40:23;99696.28;;;27.23;42.63
71948;BME280;59820;55.076;38.766;2022-07-23T10:42:51;99687.06;;;27.17;43.67
71948;BME280;59820;55.076;38.766;2022-07-23T10:45:26;99689.16;;;27.15;43.56
71948;BME280;59820;55.076;38.766;2022-07-23T10:47:53;99671.22;;;27.14;43.53
71948;BME280;59820;55.076;38.766;2022-07-23T10:50:30;99685.63;;;27.21;42.81
71948;BME280;59820;55.076;38.766;2022-07-23T10:53:12;99680.81;;;27.38;42.88
71948;BME280;59820;55.076;38.766;2022-07-23T10:55:42;99689.41;;;27.49;42.13
71948;BME280;59820;55.076;38.766;2022-07-23T10:58:08;99647.28;;;27.18;42.12
71948;BME280;59820;55.076;38.766;2022-07-23T11:00:36;99675.44;;;27.52;43.23
71948;BME280;59820;55.076;38.766;2022-07-23T11:03:27;99681.97;;;27.64;41.10
71948;BME280;59820;55.076;38.766;2022-07-23T11:05:50;99671.69;;;27.88;40.42
71948;BME280;59820;55.076;38.766;2022-07-23T11:08:21;99665.25;;;27.96;40.95
71948;BME280;59820;55.076;38.766;2022-07-23T11:10:56;99665.81;;;28.19;39.94
71948;BME280;59820;55.076;38.766;2022-07-23T11:13:47;99667.00;;;28.85;38.55
71948;BME280;59820;55.076;38.766;2022-07-23T11:16:21;99660.50;;;29.13;37.80
71948;BME280;59820;55.076;38.766;2022-07-23T11:24:10;99650.59;;;28.25;39.82
71948;BME280;59820;55.076;38.766;2022-07-23T11:31:59;99620.44;;;27.23;42.06
71948;BME280;59820;55.076;38.766;2022-07-23T11:34:29;99662.03;;;27.37;42.45
71948;BME280;59820;55.076;38.766;2022-07-23T11:36:58;99659.00;;;27.25;41.29
71948;BME280;59820;55.076;38.766;2022-07-23T11:39:27;99656.44;;;27.17;42.28
71948;BME280;59820;55.076;38.766;2022-07-23T11:41:54;99651.84;;;27.17;41.87
71948;BME280;59820;55.076;38.766;2022-07-23T11:44:49;99652.00;;;27.09;42.59
71948;BME280;59820;55.076;38.766;2022-07-23T11:47:22;99656.81;;;26.85;43.29
71948;BME280;59820;55.076;38.766;2022-07-23T11:49:59;99671.59;;;26.83;44.09
71948;BME280;59820;55.076;38.766;2022-07-23T11:52:27;99668.81;;;26.76;44.34
71948;BME280;59820;55.076;38.766;2022-07-23T11:54:59;99680.31;;;26.63;44.66
71948;BME280;59820;55.076;38.766;2022-07-23T11:57:30;99660.75;;;26.39;44.53
71948;BME280;59820;55.076;38.766;2022-07-23T12:00:11;99681.09;;;26.35;45.58
71948;BME280;59820;55.076;38.766;2022-07-23T12:02:46;99672.00;;;26.21;46.36
71948;BME280;59820;55.076;38.766;2022-07-23T12:07:44;99684.38;;;26.16;48.63
71948;BME280;59820;55.076;38.766;2022-07-23T12:10:29;99688.69;;;26.10;49.83
71948;BME280;59820;55.076;38.766;2022-07-23T12:12:59;99670.81;;;25.64;51.92
71948;BME280;59820;55.076;38.766;2022-07-23T12:15:28;99673.81;;;25.54;53.61
71948;BME280;59820;55.076;38.766;2022-07-23T12:17:56;99671.38;;;25.45;54.37
71948;BME280;59820;55.076;38.766;2022-07-23T12:20:36;99671.91;;;25.40;55.01
71948;BME280;59820;55.076;38.766;2022-07-23T12:23:05;99660.84;;;25.35;55.09
71948;BME280;59820;55.076;38.766;2022-07-23T12:25:33;99644.13;;;25.31;54.59
71948;BME280;59820;55.076;38.766;2022-07-23T12:28:10;99652.28;;;25.46;53.97
71948;BME280;59820;55.076;38.766;2022-07-23T12:30:45;99630.00;;;25.44;54.49
71948;BME280;59820;55.076;38.766;2022-07-23T12:33:15;99639.88;;;25.67;55.17
71948;BME280;59820;55.076;38.766;2022-07-23T12:35:47;99629.63;;;25.62;55.08
71948;BME280;59820;55.076;38.766;2022-07-23T12:38:24;99637.59;;;25.85;53.82
71948;BME280;59820;55.076;38.766;2022-07-23T12:40:52;99641.31;;;26.14;53.49
71948;BME280;59820;55.076;38.766;2022-07-23T12:43:29;99646.25;;;26.90;50.76
71948;BME280;59820;55.076;38.766;2022-07-23T12:46:02;99656.09;;;27.26;50.79
71948;BME280;59820;55.076;38.766;2022-07-23T12:48:30;99649.91;;;27.04;50.36
71948;BME280;59820;55.076;38.766;2022-07-23T12:51:00;99652.75;;;27.24;50.05
71948;BME280;59820;55.076;38.766;2022-07-23T12:53:30;99658.59;;;27.56;49.49
71948;BME280;59820;55.076;38.766;2022-07-23T12:55:59;99656.25;;;27.88;48.66
71948;BME280;59820;55.076;38.766;2022-07-23T12:58:26;99652.91;;;28.35;47.17
71948;BME280;59820;55.076;38.766;2022-07-23T13:01:03;99644.13;;;29.60;41.78
71948;BME280;59820;55.076;38.766;2022-07-23T13:03:34;99641.94;;;30.34;40.13
71948;BME280;59820;55.076;38.766;2022-07-23T13:06:02;99601.66;;;30.75;38.42
71948;BME280;59820;55.076;38.766;2022-07-23T13:08:29;99639.69;;;31.13;37.21
71948;BME280;59820;55.076;38.766;2022-07-23T13:10:56;99656.41;;;31.61;36.02
71948;BME280;59820;55.076;38.766;2022-07-23T13:13:28;99653.94;;;31.78;37.06
71948;BME280;59820;55.076;38.766;2022-07-23T13:15:55;99652.66;;;32.29;36.45
71948;BME280;59820;55.076;38.766;2022-07-23T13:18:22;99657.94;;;33.09;35.94
71948;BME280;59820;55.076;38.766;2022-07-23T13:20:48;99633.94;;;32.99;34.87
71948;BME280;59820;55.076;38.766;2022-07-23T13:23:15;99642.00;;;32.40;34.96
71948;BME280;59820;55.076;38.766;2022-07-23T13:25:41;99637.22;;;32.35;35.94
71948;BME280;59820;55.076;38.766;2022-07-23T13:28:07;99632.50;;;32.42;34.93
71948;BME280;59820;55.076;38.766;2022-07-23T13:30:35;99625.78;;;31.96;36.11
71948;BME280;59820;55.076;38.766;2022-07-23T13:33:03;99636.31;;;31.37;38.04
71948;BME280;59820;55.076;38.766;2022-07-23T13:35:29;99636.75;;;31.15;37.49
71948;BME280;59820;55.076;38.766;2022-07-23T13:37:55;99640.38;;;30.52;40.06
71948;BME280;59820;55.076;38.766;2022-07-23T13:40:21;99639.22;;;29.82;41.71